Bayou Vista, Texas
Current Conditions -  °F | °C
As of 9:52 AM on Wednesday 22 Oct 2014 (Local Time) from KGLS Reporting Station
Clear Clear  
Wind Chill: 76°   Ceiling: Unl
Heat Index: 76°   Visibility: 10mi
Dew Point: 67°   Wind: 14mph
Humidity: 74%   Direction: 40°NE
Pressure: 30.09"   Gusts: NA
Location:  29.2947°N, 95.0312°W
Report Text: KGLS 221452Z 04012KT 10SM CLR 24/19 A3009 RMK AO2 SLP188 T02440194 51017
Loading
Personal Weather Stations






























Interactive Weather Map
Tropical Storm Tracking
New forecast layout! Learn more

10-Day Weather Forecast

Advertisements
Track Severe Weather on mobile